createdAt,value
2018-09-02T00:09:39.267Z,23.2
2018-09-02T00:19:41.452Z,23.2
2018-09-02T00:29:43.116Z,23.2
2018-09-02T00:39:45.039Z,23.1
2018-09-02T00:49:47.194Z,23.1
2018-09-02T00:59:49.163Z,23.1
2018-09-02T01:09:50.812Z,23
2018-09-02T01:19:52.576Z,23
2018-09-02T01:29:55.174Z,23
2018-09-02T01:39:56.692Z,22.9
2018-09-02T01:49:58.316Z,22.9
2018-09-02T02:00:00.791Z,22.9
2018-09-02T02:10:02.718Z,22.9
2018-09-02T02:20:04.082Z,22.8
2018-09-02T02:30:05.816Z,22.8
2018-09-02T02:40:07.683Z,22.8
2018-09-02T02:50:09.386Z,22.8
2018-09-02T03:00:11.440Z,22.8
2018-09-02T03:10:13.579Z,22.7
2018-09-02T03:20:15.640Z,22.7
2018-09-02T03:30:17.788Z,22.7
2018-09-02T03:40:19.493Z,22.7
2018-09-02T03:50:21.311Z,22.6
2018-09-02T04:00:22.554Z,22.6
2018-09-02T04:10:24.499Z,22.6
2018-09-02T04:20:26.542Z,22.6
2018-09-02T04:30:28.333Z,22.5
2018-09-02T04:40:30.025Z,22.5
2018-09-02T04:50:31.409Z,22.5
2018-09-02T05:00:33.424Z,22.6
2018-09-02T05:10:35.305Z,22.6
2018-09-02T05:20:37.440Z,22.7
2018-09-02T05:30:39.125Z,22.8
2018-09-02T05:40:41.166Z,22.8
2018-09-02T05:50:43.514Z,22.9
2018-09-02T06:00:46.025Z,23
2018-09-02T06:10:47.682Z,23
2018-09-02T06:20:49.263Z,23.1
2018-09-02T06:30:51.109Z,23.1
2018-09-02T06:40:53.275Z,23.1
2018-09-02T06:50:55.387Z,23.1
2018-09-02T07:00:57.805Z,23.1
2018-09-02T07:10:59.700Z,23.1
2018-09-02T07:21:01.485Z,23.2
2018-09-02T07:31:03.680Z,23.2
2018-09-02T07:41:05.866Z,23.3
2018-09-02T07:51:07.403Z,23.3
2018-09-02T08:01:08.944Z,23.4
2018-09-02T08:11:10.477Z,23.4
2018-09-02T08:21:12.198Z,23.3
2018-09-02T08:31:13.980Z,23.3
2018-09-02T08:41:16.119Z,23.2
2018-09-02T08:51:18.112Z,23.2
2018-09-02T09:01:19.890Z,23.2
2018-09-02T09:11:21.615Z,23.1
2018-09-02T09:21:23.391Z,23
2018-09-02T09:31:25.679Z,23.1
2018-09-02T09:41:28.246Z,23.1
2018-09-02T09:51:30.190Z,23.1
2018-09-02T10:01:32.131Z,23.2
2018-09-02T10:11:34.054Z,23.1
2018-09-02T10:21:35.883Z,23.1
2018-09-02T10:31:37.545Z,23.1
2018-09-02T10:41:39.756Z,23.2
2018-09-02T10:51:41.493Z,23.2
2018-09-02T11:01:43.300Z,23.2
2018-09-02T11:11:45.034Z,23.3
2018-09-02T11:21:48.343Z,23.3
2018-09-02T11:31:49.833Z,23.4
2018-09-02T11:41:51.966Z,23.5
2018-09-02T11:51:53.637Z,23.5
2018-09-02T12:01:55.866Z,23.6
2018-09-02T12:11:58.065Z,23.7
2018-09-02T12:22:00.454Z,23.8
2018-09-02T12:32:02.462Z,23.8
2018-09-02T12:42:04.057Z,23.8
2018-09-02T12:52:05.727Z,23.9
2018-09-02T13:02:07.949Z,23.9
2018-09-02T13:12:09.514Z,23.9
2018-09-02T13:22:11.672Z,23.9
2018-09-02T13:32:13.498Z,23.9
2018-09-02T13:42:15.769Z,24
2018-09-02T13:52:17.828Z,24
2018-09-02T14:02:19.959Z,24
2018-09-02T14:12:21.582Z,24
2018-09-02T14:22:23.757Z,24
2018-09-02T14:32:25.656Z,24
2018-09-02T14:42:28.049Z,24
2018-09-02T14:52:30.056Z,24.1
2018-09-02T15:02:31.365Z,24.1
2018-09-02T15:12:33.353Z,24.1
2018-09-02T15:22:35.065Z,24.2
2018-09-02T15:32:37.083Z,24.2
2018-09-02T15:42:38.747Z,24.2
2018-09-02T15:52:40.842Z,24.2
2018-09-02T16:02:42.468Z,24.3
2018-09-02T16:12:44.891Z,24.3
2018-09-02T16:22:46.191Z,24.3
2018-09-02T16:32:50.221Z,24.3
2018-09-02T16:42:52.092Z,24.3
2018-09-02T16:52:54.013Z,24.4
2018-09-02T17:02:55.549Z,24.4
2018-09-02T17:12:57.061Z,24.5
2018-09-02T17:22:58.882Z,24.5
2018-09-02T17:33:01.487Z,24.5
2018-09-02T17:43:03.789Z,24.5
2018-09-02T17:53:05.895Z,24.5
2018-09-02T18:03:07.732Z,24.5
2018-09-02T18:13:09.562Z,24.4
2018-09-02T18:23:11.191Z,24.4
2018-09-02T18:33:13.252Z,24.3
2018-09-02T18:43:15.381Z,24.3
2018-09-02T18:53:17.532Z,24.2
2018-09-02T19:03:18.979Z,24.2
2018-09-02T19:13:21.116Z,24.1
2018-09-02T19:23:22.909Z,24.1
2018-09-02T19:33:24.782Z,24.1
2018-09-02T19:43:26.732Z,24
2018-09-02T19:53:28.746Z,23.9
2018-09-02T20:03:30.654Z,23.8
2018-09-02T20:13:32.357Z,23.8
2018-09-02T20:23:34.035Z,23.7
2018-09-02T20:33:35.977Z,23.7
2018-09-02T20:43:37.712Z,23.6
2018-09-02T20:53:39.354Z,23.5
2018-09-02T21:03:41.375Z,23.5
2018-09-02T21:13:43.064Z,23.4
2018-09-02T21:23:44.926Z,23.4
2018-09-02T21:33:46.975Z,23.3
2018-09-02T21:43:48.997Z,23.3
2018-09-02T21:53:51.087Z,23.3
2018-09-02T22:03:53.115Z,23.2
2018-09-02T22:13:54.809Z,23.2
2018-09-02T22:23:56.707Z,23.1
2018-09-02T22:33:58.577Z,23.1
2018-09-02T22:44:00.764Z,23.1
2018-09-02T22:54:02.470Z,23
2018-09-02T23:04:04.359Z,23
2018-09-02T23:14:06.560Z,23
2018-09-02T23:24:08.486Z,23
2018-09-02T23:34:10.605Z,23
2018-09-02T23:44:12.767Z,22.9
2018-09-02T23:54:14.500Z,22.9
